Marshall Foss — WDB9762 — position and weather

sailwx.info

Track history (hours):
 
Tides and Currents Weather Stations Pressure Air Temp Water Temp Dewpoint Dewpoint Depression Visibility Wind Speed Wind Dir Waves Ship Positions

Marshall Foss

Owner: Foss Maritime Company, Seattle, WA. More information available from US FCC via Universal Licensing System and Coast Guard Vessel Documentation Center.

Last reported at 2018-Jul-21 11:21 UTC. Time now 2018-Jul-21 15:35 UTC.
Position N 48°43' W 122°44'.

Length 27 m; draft 5.4 m.

Type: Tug. MMSI: 366982320.

Date/timePositionNaut miles runAvg speedWind from/ knotsBaromVisibWave heightAir tempDewpointWater temp
2018-Jul-21 11:21N 48°43' W 122°44'3 9.2
2018-Jul-21 11:01N 48°41' W 122°41'510.2
2018-Jul-21 10:31N 48°36' W 122°37'5 9.9
2018-Jul-21 10:01N 48°32' W 122°34'2 3.2
2018-Jul-21 09:27N 48°31' W 122°37'0 0.0
2018-Jul-21 08:57N 48°31' W 122°37'0 0.0
2018-Jul-21 08:27N 48°31' W 122°37'0 0.0
2018-Jul-21 07:57N 48°31' W 122°37'0 0.0
2018-Jul-21 07:27N 48°31' W 122°37'0 0.0
2018-Jul-21 06:57N 48°31' W 122°37'0 0.0
2018-Jul-21 06:31N 48°31' W 122°37'0 0.5
2018-Jul-21 06:00N 48°31' W 122°37'2 4.1
2018-Jul-21 05:31N 48°31' W 122°34'0 1.0
2018-Jul-21 05:01N 48°31' W 122°35'0 0.3
2018-Jul-21 04:31N 48°31' W 122°35'2 3.1
2018-Jul-21 04:01N 48°31' W 122°37'0 0.0
2018-Jul-21 03:29N 48°31' W 122°37'0 0.0
2018-Jul-21 03:01N 48°31' W 122°37'0 0.0
2018-Jul-21 02:30N 48°31' W 122°37'0 0.0
2018-Jul-21 02:01N 48°31' W 122°37'0 0.0
2018-Jul-21 01:30N 48°31' W 122°37'0 0.0
2018-Jul-21 01:01N 48°31' W 122°37'0 0.0
2018-Jul-21 00:30N 48°31' W 122°37'0 0.0
2018-Jul-21 00:01N 48°31' W 122°37'0 0.0
2018-Jul-20 23:30N 48°31' W 122°37'0 0.0
2018-Jul-20 23:01N 48°31' W 122°37'0 0.0
2018-Jul-20 22:30N 48°31' W 122°37'0 0.0
2018-Jul-20 22:00N 48°31' W 122°37'0 0.0
2018-Jul-20 21:30N 48°31' W 122°37'0 0.0
2018-Jul-20 21:01N 48°31' W 122°37'0 0.0
2018-Jul-20 20:30N 48°31' W 122°37'0 0.0
2018-Jul-20 20:00N 48°31' W 122°37'0 0.0
2018-Jul-20 19:30N 48°31' W 122°37'0 0.0
2018-Jul-20 19:00N 48°31' W 122°37'0 0.7
2018-Jul-20 18:31N 48°31' W 122°36'2 4.1
2018-Jul-20 17:59N 48°31' W 122°33'0 0.1
2018-Jul-20 17:23N 48°31' W 122°33'0 0.0
2018-Jul-20 16:59N 48°31' W 122°33'0 0.0
2018-Jul-20 16:29N 48°31' W 122°33'0 0.1
2018-Jul-20 15:59N 48°31' W 122°33'0 0.1
2018-Jul-20 15:29N 48°31' W 122°33'0 0.0
2018-Jul-20 14:59N 48°31' W 122°33'0 0.0
2018-Jul-20 14:23N 48°31' W 122°33'0 0.0
2018-Jul-20 13:59N 48°31' W 122°33'1 2.7
2018-Jul-20 13:30N 48°31' W 122°35'0 0.4
2018-Jul-20 13:00N 48°31' W 122°35'1 1.4
2018-Jul-20 12:30N 48°31' W 122°35'4 8.8
2018-Jul-20 12:01N 48°31' W 122°42'5 9.7
2018-Jul-20 11:30N 48°26' W 122°45'2 3.3
2018-Jul-20 11:00N 48°25' W 122°47'612.9
2018-Jul-20 10:30N 48°32' W 122°45'713.5
2018-Jul-20 09:59N 48°39' W 122°44'611.9
2018-Jul-20 09:31N 48°44' W 122°45'2 0.6
2018-Jul-20 06:26N 48°43' W 122°43'410.6
2018-Jul-20 06:01N 48°39' W 122°39'4 7.6
2018-Jul-20 05:30N 48°40' W 122°34'5 9.1
2018-Jul-20 04:59N 48°44' W 122°31'1 0.1
2018-Jul-19 19:01N 48°44' W 122°31'2 9.5
2018-Jul-19 18:49N 48°42' W 122°33'3 9.9
2018-Jul-19 18:30N 48°39' W 122°34'510.0
2018-Jul-19 18:00N 48°36' W 122°39'510.5
2018-Jul-19 17:30N 48°31' W 122°42'35 8.7
2018-Jul-19 13:29N 47°59' W 122°19'2 1.3
2018-Jul-19 11:54N 47°57' W 122°19'3 6.5
2018-Jul-19 11:30N 47°55' W 122°21'3 6.4
2018-Jul-19 11:00N 47°52' W 122°23'4 7.0
2018-Jul-19 10:30N 47°49' W 122°24'4 8.6
2018-Jul-19 10:00N 47°44' W 122°26'4 8.7
2018-Jul-19 09:30N 47°40' W 122°27'4 7.9
2018-Jul-19 09:00N 47°37' W 122°24'2 3.7
2018-Jul-19 08:30N 47°35' W 122°22'1 2.4
2018-Jul-19 08:00N 47°36' W 122°21'4 8.1
2018-Jul-19 07:30N 47°38' W 122°25'511.0
2018-Jul-19 07:00N 47°43' W 122°28'611.6
2018-Jul-19 06:30N 47°49' W 122°28'611.9
2018-Jul-19 06:00N 47°55' W 122°31'3411.1
2018-Jul-19 02:56N 48°28' W 122°43'4 9.0
2018-Jul-19 02:30N 48°31' W 122°41'4 7.4
2018-Jul-19 02:00N 48°31' W 122°35'0 0.9
2018-Jul-19 01:30N 48°31' W 122°35'0 0.8
2018-Jul-19 01:00N 48°31' W 122°34'0 0.3
2018-Jul-19 00:30N 48°31' W 122°34'0 0.2
2018-Jul-19 00:00N 48°31' W 122°34'0 0.3
2018-Jul-18 23:30N 48°31' W 122°34'1 2.8
2018-Jul-18 23:00N 48°31' W 122°36'1 1.9
2018-Jul-18 22:30N 48°31' W 122°38'3 6.2
2018-Jul-18 22:00N 48°31' W 122°42'3 6.6
2018-Jul-18 21:30N 48°28' W 122°44'27 8.9
2018-Jul-18 18:30N 48°01' W 122°37'611.5
2018-Jul-18 18:00N 47°57' W 122°32'510.3
2018-Jul-18 17:30N 47°52' W 122°28'510.1
2018-Jul-18 17:00N 47°47' W 122°26'5 9.8
2018-Jul-18 16:30N 47°42' W 122°27'5 9.2
2018-Jul-18 16:00N 47°38' W 122°25'2 3.4
2018-Jul-18 15:29N 47°38' W 122°23'0 0.0
2018-Jul-18 14:59N 47°38' W 122°23'0 0.0
2018-Jul-18 14:29N 47°38' W 122°23'0 0.0
2018-Jul-18 13:29N 47°38' W 122°23'0 0.0
2018-Jul-18 12:59N 47°38' W 122°23'0 0.0
2018-Jul-18 12:29N 47°38' W 122°23'0 0.0
2018-Jul-18 11:59N 47°38' W 122°23'1 1.5
2018-Jul-18 11:30N 47°37' W 122°22'2 2.4
2018-Jul-18 10:30N 47°35' W 122°21'3 6.1
2018-Jul-18 10:00N 47°38' W 122°23'0 0.0
2018-Jul-18 09:28N 47°38' W 122°23'0 0.0
2018-Jul-18 08:58N 47°38' W 122°23'0 0.0
2018-Jul-18 08:28N 47°38' W 122°23'0 0.0
2018-Jul-18 07:58N 47°38' W 122°23'0 0.0
2018-Jul-18 07:28N 47°38' W 122°23'0 0.0
2018-Jul-18 06:58N 47°38' W 122°23'0 0.0
2018-Jul-18 06:28N 47°38' W 122°23'0 0.0
2018-Jul-18 05:58N 47°38' W 122°23'0 0.0
2018-Jul-18 05:28N 47°38' W 122°23'0 0.0
2018-Jul-18 04:58N 47°38' W 122°23'0 0.0
2018-Jul-18 04:28N 47°38' W 122°23'0 0.0
2018-Jul-18 03:58N 47°38' W 122°23'0 0.0
2018-Jul-18 03:28N 47°38' W 122°23'0 0.0
2018-Jul-18 02:58N 47°38' W 122°23'0 0.0
2018-Jul-18 02:28N 47°38' W 122°23'1 1.9
2018-Jul-18 02:00N 47°37' W 122°22'2 4.6
2018-Jul-18 01:30N 47°35' W 122°21'0 0.4
2018-Jul-18 01:00N 47°35' W 122°21'0 0.3
2018-Jul-18 00:30N 47°35' W 122°21'0 0.0
2018-Jul-18 00:00N 47°35' W 122°21'0 0.0
2018-Jul-17 23:30N 47°35' W 122°21'0 0.0
2018-Jul-17 23:00N 47°35' W 122°21'0 0.0
2018-Jul-17 22:30N 47°35' W 122°21'1 1.7
2018-Jul-17 22:00N 47°36' W 122°21'0 0.7
2018-Jul-17 21:30N 47°35' W 122°21'2 4.1
2018-Jul-17 21:00N 47°37' W 122°23'1 1.5
2018-Jul-17 20:30N 47°38' W 122°23'0 0.0
2018-Jul-17 20:01N 47°38' W 122°23'4 8.0
2018-Jul-17 19:31N 47°34' W 122°26'510.1
2018-Jul-17 19:00N 47°29' W 122°24'510.0
2018-Jul-17 18:30N 47°25' W 122°22'4 8.3
2018-Jul-17 17:59N 47°21' W 122°24'3 6.2
2018-Jul-17 17:26N 47°18' W 122°26'2 2.5
2018-Jul-17 16:45N 47°16' W 122°27'0 0.0
2018-Jul-17 16:28N 47°16' W 122°27'0 1.0
2018-Jul-17 16:00N 47°16' W 122°27'0 0.9
2018-Jul-17 15:29N 47°16' W 122°26'0 0.9
2018-Jul-17 15:00N 47°16' W 122°26'0 0.0
2018-Jul-17 14:30N 47°16' W 122°26'0 0.0
2018-Jul-17 13:58N 47°16' W 122°26'0 0.0
2018-Jul-17 13:29N 47°16' W 122°26'0 0.0
2018-Jul-17 13:00N 47°16' W 122°26'0 0.0
2018-Jul-17 12:30N 47°16' W 122°26'4 8.6
2018-Jul-17 11:59N 47°20' W 122°27'5 9.8
2018-Jul-17 11:30N 47°24' W 122°22'510.4
2018-Jul-17 11:00N 47°29' W 122°24'510.7
2018-Jul-17 10:31N 47°34' W 122°25'4 7.7
2018-Jul-17 09:58N 47°38' W 122°23'0 0.0
2018-Jul-17 09:28N 47°38' W 122°23'0 0.0
2018-Jul-17 08:58N 47°38' W 122°23'0 0.0
2018-Jul-17 08:28N 47°38' W 122°23'0 0.0
2018-Jul-17 07:58N 47°38' W 122°23'0 0.0
2018-Jul-17 07:28N 47°38' W 122°23'0 0.0
2018-Jul-17 06:58N 47°38' W 122°23'0 0.0
2018-Jul-17 06:28N 47°38' W 122°23'0 0.0
2018-Jul-17 05:58N 47°38' W 122°23'0 0.0
2018-Jul-17 05:28N 47°38' W 122°23'0 0.0
2018-Jul-17 04:58N 47°38' W 122°23'0 0.0
2018-Jul-17 04:28N 47°38' W 122°23'0 0.1
2018-Jul-17 04:01N 47°38' W 122°23'1 2.9
2018-Jul-17 03:31N 47°37' W 122°21'1 2.9
2018-Jul-17 03:00N 47°35' W 122°21'1 2.9
2018-Jul-17 02:30N 47°36' W 122°23'2 3.1
2018-Jul-17 02:00N 47°38' W 122°23'0 0.0
2018-Jul-17 01:30N 47°38' W 122°23'0 0.0
2018-Jul-17 01:00N 47°38' W 122°23'0 0.0
2018-Jul-17 00:28N 47°38' W 122°23'0 0.0
2018-Jul-16 23:30N 47°38' W 122°23'0 0.0
2018-Jul-16 23:00N 47°38' W 122°23'0 0.0
2018-Jul-16 22:31N 47°38' W 122°23'0 0.0
2018-Jul-16 22:01N 47°38' W 122°23'0 0.0
2018-Jul-16 21:30N 47°38' W 122°23'0 0.0
2018-Jul-16 21:00N 47°38' W 122°23'0 0.0
2018-Jul-16 20:30N 47°38' W 122°23'0 0.0
2018-Jul-16 20:00N 47°38' W 122°23'0 0.0
2018-Jul-16 19:30N 47°38' W 122°23'0 0.0
2018-Jul-16 19:00N 47°38' W 122°23'0 0.0
2018-Jul-16 18:30N 47°38' W 122°23'0 0.0
2018-Jul-16 18:00N 47°38' W 122°23'0 0.0
2018-Jul-16 17:30N 47°38' W 122°23'0 0.0
2018-Jul-16 17:00N 47°38' W 122°23'0 0.0
2018-Jul-16 16:30N 47°38' W 122°23'0 0.0
2018-Jul-16 16:00N 47°38' W 122°23'0 0.0
2018-Jul-16 15:30N 47°38' W 122°23'0 0.0
2018-Jul-16 15:00N 47°38' W 122°23'1 2.9
2018-Jul-16 14:30N 47°37' W 122°22'2 4.6
2018-Jul-16 14:00N 47°34' W 122°21'1 2.3
2018-Jul-16 13:30N 47°33' W 122°21'0 0.7
2018-Jul-16 13:00N 47°33' W 122°20'1 2.9
2018-Jul-16 12:29N 47°34' W 122°21'3 6.6
2018-Jul-16 12:00N 47°37' W 122°23'1 1.1
2018-Jul-16 11:28N 47°38' W 122°23'0 0.0
2018-Jul-16 10:58N 47°38' W 122°23'0 0.0
2018-Jul-16 10:31N 47°38' W 122°23'0 0.0
2018-Jul-16 09:58N 47°38' W 122°23'0 0.0
2018-Jul-16 09:28N 47°38' W 122°23'0 0.0
2018-Jul-16 08:58N 47°38' W 122°23'0 0.0
2018-Jul-16 08:25N 47°38' W 122°23'0 0.0
2018-Jul-16 07:58N 47°38' W 122°23'0 0.0
2018-Jul-16 07:28N 47°38' W 122°23'0 0.0
2018-Jul-16 06:58N 47°38' W 122°23'0 0.0
2018-Jul-16 06:25N 47°38' W 122°23'0 0.0
2018-Jul-16 05:58N 47°38' W 122°23'0 0.0
2018-Jul-16 05:28N 47°38' W 122°23'0 0.0
2018-Jul-16 04:58N 47°38' W 122°23'0 0.0
2018-Jul-16 04:28N 47°38' W 122°23'0 0.0
2018-Jul-16 03:58N 47°38' W 122°23'0 1.0
2018-Jul-16 03:30N 47°37' W 122°23'2 4.7
2018-Jul-16 03:00N 47°36' W 122°21'0 0.2
2018-Jul-16 02:30N 47°36' W 122°21'3 5.2
2018-Jul-16 02:00N 47°38' W 122°23'0 0.0
2018-Jul-16 01:30N 47°38' W 122°23'0 0.0
2018-Jul-16 01:00N 47°38' W 122°23'0 0.0
2018-Jul-16 00:30N 47°38' W 122°23'0 0.0
2018-Jul-15 23:59N 47°38' W 122°23'0 0.0
2018-Jul-15 23:30N 47°38' W 122°23'0 0.0
2018-Jul-15 23:00N 47°38' W 122°23'0 0.0
2018-Jul-15 22:30N 47°38' W 122°23'0 0.0
2018-Jul-15 22:00N 47°38' W 122°23'0 0.0
2018-Jul-15 21:30N 47°38' W 122°23'0 0.0
2018-Jul-15 21:00N 47°38' W 122°23'0 0.0
2018-Jul-15 20:30N 47°38' W 122°23'0 0.0
2018-Jul-15 20:00N 47°38' W 122°23'0 0.0
2018-Jul-15 19:30N 47°38' W 122°23'0 0.0
2018-Jul-15 19:00N 47°38' W 122°23'0 0.0
2018-Jul-15 18:30N 47°38' W 122°23'0 0.0
2018-Jul-15 18:00N 47°38' W 122°23'0 0.0
2018-Jul-15 17:30N 47°38' W 122°23'0 0.0
2018-Jul-15 17:00N 47°38' W 122°23'0 0.0
2018-Jul-15 16:30N 47°38' W 122°23'0 0.0
2018-Jul-15 16:00N 47°38' W 122°23'0 0.0
2018-Jul-15 15:30N 47°38' W 122°23'0 0.0
2018-Jul-15 15:00N 47°38' W 122°23'0 0.0
2018-Jul-15 14:29N 47°38' W 122°23'0 0.0
2018-Jul-15 14:00N 47°38' W 122°23'0 0.0
2018-Jul-15 13:30N 47°38' W 122°23'3 6.4
2018-Jul-15 13:00N 47°35' W 122°21'0 0.0
2018-Jul-15 12:30N 47°35' W 122°21'1 1.9
2018-Jul-15 12:00N 47°36' W 122°21'1 2.6
2018-Jul-15 11:30N 47°37' W 122°22'1 1.8
2018-Jul-15 10:59N 47°38' W 122°23'0 0.0
2018-Jul-15 10:29N 47°38' W 122°23'0 0.0
2018-Jul-15 09:59N 47°38' W 122°23'0 0.0
2018-Jul-15 09:29N 47°38' W 122°23'0 0.0
2018-Jul-15 08:59N 47°38' W 122°23'0 0.0
2018-Jul-15 08:29N 47°38' W 122°23'0 0.0
2018-Jul-15 07:59N 47°38' W 122°23'0 0.0
2018-Jul-15 07:29N 47°38' W 122°23'0 0.0
2018-Jul-15 06:59N 47°38' W 122°23'0 0.0
2018-Jul-15 06:29N 47°38' W 122°23'0 0.0
2018-Jul-15 05:59N 47°38' W 122°23'0 0.0
2018-Jul-15 05:29N 47°38' W 122°23'0 0.0
2018-Jul-15 04:59N 47°38' W 122°23'0 0.0
2018-Jul-15 04:26N 47°38' W 122°23'0 0.0
2018-Jul-15 03:59N 47°38' W 122°23'0 0.0
2018-Jul-15 03:30N 47°38' W 122°23'1 1.0
2018-Jul-15 02:49N 47°37' W 122°22'1 1.9
2018-Jul-15 02:28N 47°38' W 122°23'0 0.0
2018-Jul-15 01:58N 47°38' W 122°23'0 0.0
2018-Jul-15 01:28N 47°38' W 122°23'0 0.0
2018-Jul-15 00:58N 47°38' W 122°23'0 0.0
2018-Jul-15 00:28N 47°38' W 122°23'0 0.0
2018-Jul-14 23:58N 47°38' W 122°23'0 0.0
2018-Jul-14 23:28N 47°38' W 122°23'0 0.0
2018-Jul-14 22:58N 47°38' W 122°23'0 0.0
2018-Jul-14 22:29N 47°38' W 122°23'0 0.0
2018-Jul-14 21:58N 47°38' W 122°23'0 0.0
2018-Jul-14 21:28N 47°38' W 122°23'0 0.0
2018-Jul-14 20:58N 47°38' W 122°23'0 0.0
2018-Jul-14 20:28N 47°38' W 122°23'0 0.0
2018-Jul-14 19:59N 47°38' W 122°23'0 0.0
2018-Jul-14 19:28N 47°38' W 122°23'0 0.0
2018-Jul-14 18:58N 47°38' W 122°23'0 0.0
2018-Jul-14 18:28N 47°38' W 122°23'0 0.0
2018-Jul-14 17:58N 47°38' W 122°23'0 0.0
2018-Jul-14 17:28N 47°38' W 122°23'3 7.3
2018-Jul-14 17:00N 47°35' W 122°25'611.5
2018-Jul-14 16:30N 47°30' W 122°29'611.4
2018-Jul-14 16:01N 47°25' W 122°32'5 9.8
2018-Jul-14 15:30N 47°20' W 122°31'510.0
2018-Jul-14 15:00N 47°17' W 122°25'2 4.3
2018-Jul-14 14:30N 47°15' W 122°23'2 2.4
2018-Jul-14 13:31N 47°17' W 122°25'1 2.4
2018-Jul-14 13:00N 47°16' W 122°24'1 2.4
2018-Jul-14 12:30N 47°15' W 122°23'0 0.1
2018-Jul-14 11:52N 47°15' W 122°23'1 0.4
2018-Jul-14 08:47N 47°16' W 122°24'0 1.7
2018-Jul-14 08:30N 47°16' W 122°24'0 0.3
2018-Jul-14 08:00N 47°16' W 122°24'0 0.3
2018-Jul-14 07:29N 47°16' W 122°24'1 2.4
2018-Jul-14 06:58N 47°16' W 122°26'0 0.1
2018-Jul-14 06:13N 47°16' W 122°26'0 0.0
2018-Jul-14 05:58N 47°16' W 122°26'0 0.0
2018-Jul-14 05:28N 47°16' W 122°26'0 0.0
2018-Jul-14 04:55N 47°16' W 122°26'0 0.0
2018-Jul-14 04:28N 47°16' W 122°26'0 0.0
2018-Jul-14 03:58N 47°16' W 122°26'0 0.0
2018-Jul-14 03:25N 47°16' W 122°26'0 0.1
2018-Jul-14 02:58N 47°16' W 122°26'0 0.0
2018-Jul-14 02:28N 47°16' W 122°26'0 0.1
2018-Jul-14 01:52N 47°16' W 122°26'0 0.0
2018-Jul-14 01:28N 47°16' W 122°26'0 0.1
2018-Jul-14 01:00N 47°16' W 122°26'1 1.0
2018-Jul-13 23:35N 47°17' W 122°25'111.0
2018-Jul-13 23:30N 47°17' W 122°26'1 1.8
2018-Jul-13 22:52N 47°16' W 122°24'0 1.0
2018-Jul-13 22:29N 47°17' W 122°25'1 2.6
2018-Jul-13 21:58N 47°17' W 122°26'0 0.8
2018-Jul-13 21:30N 47°18' W 122°26'2 3.8
2018-Jul-13 21:00N 47°16' W 122°26'0 0.5
2018-Jul-13 20:26N 47°16' W 122°26'2 1.9
2018-Jul-13 19:33N 47°18' W 122°26'0 0.1
2018-Jul-13 19:26N 47°18' W 122°26'0 0.0
2018-Jul-13 19:00N 47°18' W 122°26'0 0.0
2018-Jul-13 18:28N 47°18' W 122°26'0 0.3
2018-Jul-13 17:57N 47°18' W 122°26'1 1.9
2018-Jul-13 17:09N 47°16' W 122°25'1 3.9
2018-Jul-13 17:00N 47°17' W 122°25'0 0.3
2018-Jul-13 16:11N 47°17' W 122°26'1 0.3
2018-Jul-13 12:39N 47°16' W 122°26'0 0.0
2018-Jul-13 10:51N 47°16' W 122°26'0 0.0
2018-Jul-13 10:30N 47°16' W 122°26'0 0.0
2018-Jul-13 10:00N 47°16' W 122°26'0 0.0
2018-Jul-13 09:30N 47°16' W 122°26'0 0.0
2018-Jul-13 09:00N 47°16' W 122°26'1 2.8
2018-Jul-13 08:30N 47°16' W 122°24'1 2.4
2018-Jul-13 07:59N 47°15' W 122°23'2 3.6
2018-Jul-13 07:30N 47°17' W 122°25'2 3.5
2018-Jul-13 07:00N 47°18' W 122°27'1 2.1
2018-Jul-13 06:30N 47°17' W 122°25'1 2.5
2018-Jul-13 06:00N 47°16' W 122°26'0 0.0
2018-Jul-13 05:30N 47°16' W 122°26'0 0.0
2018-Jul-13 05:00N 47°16' W 122°26'0 0.0
2018-Jul-13 04:30N 47°16' W 122°26'0 0.0
2018-Jul-13 04:00N 47°16' W 122°26'0 0.0
2018-Jul-13 03:30N 47°16' W 122°26'0 0.0
2018-Jul-13 03:00N 47°16' W 122°26'0 0.0
2018-Jul-13 02:30N 47°16' W 122°26'0 0.0
2018-Jul-13 02:00N 47°16' W 122°26'4 8.5
2018-Jul-13 01:30N 47°20' W 122°27'5 9.6
2018-Jul-13 01:01N 47°23' W 122°22'510.5
2018-Jul-13 00:30N 47°28' W 122°24'510.5
2018-Jul-13 00:00N 47°33' W 122°25'5 9.3
2018-Jul-12 23:30N 47°38' W 122°23'0 0.4
2018-Jul-12 23:00N 47°38' W 122°23'0 0.0
2018-Jul-12 22:30N 47°38' W 122°23'0 0.0
2018-Jul-12 22:00N 47°38' W 122°23'0 0.0
2018-Jul-12 21:30N 47°38' W 122°23'0 0.0
2018-Jul-12 21:00N 47°38' W 122°23'0 0.0
2018-Jul-12 20:30N 47°38' W 122°23'0 0.0
2018-Jul-12 20:00N 47°38' W 122°23'3 6.0
2018-Jul-12 19:30N 47°35' W 122°21'0 0.1
2018-Jul-12 19:00N 47°35' W 122°21'1 1.2
2018-Jul-12 18:30N 47°36' W 122°21'1 2.2
2018-Jul-12 18:00N 47°37' W 122°22'0 0.1
2018-Jul-12 17:30N 47°37' W 122°22'0 0.5
2018-Jul-12 17:00N 47°37' W 122°22'2 3.2
2018-Jul-12 16:30N 47°36' W 122°21'0 0.2
2018-Jul-12 16:00N 47°36' W 122°21'1 2.1
2018-Jul-12 15:30N 47°36' W 122°22'1 2.8
2018-Jul-12 15:00N 47°37' W 122°23'1 1.4
2018-Jul-12 14:30N 47°38' W 122°23'0 0.0
2018-Jul-12 14:00N 47°38' W 122°23'0 0.0
2018-Jul-12 13:30N 47°38' W 122°23'0 0.7
2018-Jul-12 13:00N 47°38' W 122°23'2 4.9
2018-Jul-12 12:30N 47°36' W 122°21'0 0.6
2018-Jul-12 11:58N 47°36' W 122°20'0 0.0
2018-Jul-12 11:28N 47°36' W 122°20'2 3.3
2018-Jul-12 11:00N 47°36' W 122°23'4 8.1
2018-Jul-12 10:30N 47°32' W 122°25'5 9.8
2018-Jul-12 10:00N 47°28' W 122°24'510.2
2018-Jul-12 09:30N 47°23' W 122°21'5 9.6
2018-Jul-12 09:00N 47°20' W 122°26'3 6.7
2018-Jul-12 08:31N 47°16' W 122°24'0 0.2
2018-Jul-12 08:00N 47°16' W 122°24'0 0.4
2018-Jul-12 07:31N 47°17' W 122°24'4 7.7
2018-Jul-12 07:00N 47°20' W 122°28'510.4
2018-Jul-12 06:31N 47°23' W 122°22'510.4
2018-Jul-12 06:00N 47°29' W 122°24'510.5
2018-Jul-12 05:30N 47°34' W 122°25'5 9.3
2018-Jul-12 05:00N 47°38' W 122°23'0 0.1
2018-Jul-12 04:30N 47°38' W 122°23'1 1.3
2018-Jul-12 04:00N 47°37' W 122°23'2 4.4
2018-Jul-12 03:30N 47°35' W 122°21'1 1.0
2018-Jul-12 03:00N 47°35' W 122°22'0 0.0
2018-Jul-12 02:30N 47°35' W 122°22'2 4.7
2018-Jul-12 02:00N 47°35' W 122°25'5 9.4
2018-Jul-12 01:30N 47°34' W 122°32'3 5.5
2018-Jul-12 00:55N 47°33' W 122°36'1 2.2
2018-Jul-12 00:26N 47°33' W 122°38'0 0.1
2018-Jul-11 23:56N 47°33' W 122°38'0 1.0
2018-Jul-11 23:27N 47°33' W 122°38'0 0.0
2018-Jul-11 22:09N 47°33' W 122°38'0 0.0
2018-Jul-11 21:48N 47°33' W 122°38'0 0.0
2018-Jul-11 21:27N 47°33' W 122°38'0 0.3
2018-Jul-11 21:00N 47°33' W 122°37'4 7.7
2018-Jul-11 20:30N 47°34' W 122°32'5 9.3
2018-Jul-11 20:00N 47°30' W 122°29'5 9.6
2018-Jul-11 19:31N 47°25' W 122°31'5 9.8
2018-Jul-11 19:00N 47°20' W 122°32'5 9.8
2018-Jul-11 18:30N 47°17' W 122°27'1 2.4
2018-Jul-11 18:00N 47°17' W 122°25'2 3.1
2018-Jul-11 17:30N 47°16' W 122°27'0 0.9
2018-Jul-11 17:00N 47°16' W 122°26'1 0.7
2018-Jul-11 15:07N 47°17' W 122°25'1 4.6
2018-Jul-11 15:00N 47°17' W 122°25'2 1.2
2018-Jul-11 13:47N 47°16' W 122°23'1 3.4
2018-Jul-11 13:30N 47°16' W 122°24'2 4.0
2018-Jul-11 13:00N 47°18' W 122°26'0 0.7
2018-Jul-11 12:30N 47°18' W 122°26'0 0.0
2018-Jul-11 12:00N 47°18' W 122°26'2 4.6
2018-Jul-11 11:31N 47°20' W 122°27'  
Track history (hours):
 
Tides and Currents Weather Stations Pressure Air Temp Water Temp Dewpoint Dewpoint Depression Visibility Wind Speed Wind Dir Waves Ship Positions

Marshall Foss

Owner: Foss Maritime Company, Seattle, WA. More information available from US FCC via Universal Licensing System and Coast Guard Vessel Documentation Center.

Last reported at 2018-Jul-21 11:21 UTC. Time now 2018-Jul-21 15:35 UTC.
Position N 48°43' W 122°44'.

Length 27 m; draft 5.4 m.

Type: Tug. MMSI: 366982320.

Date/timePositionNaut miles runAvg speedWind from/ knotsBaromVisibWave heightAir tempDewpointWater temp
2018-Jul-21 11:21N 48°43' W 122°44'3 9.2
2018-Jul-21 11:01N 48°41' W 122°41'510.2
2018-Jul-21 10:31N 48°36' W 122°37'5 9.9
2018-Jul-21 10:01N 48°32' W 122°34'2 3.2
2018-Jul-21 09:27N 48°31' W 122°37'0 0.0
2018-Jul-21 08:57N 48°31' W 122°37'0 0.0
2018-Jul-21 08:27N 48°31' W 122°37'0 0.0
2018-Jul-21 07:57N 48°31' W 122°37'0 0.0
2018-Jul-21 07:27N 48°31' W 122°37'0 0.0
2018-Jul-21 06:57N 48°31' W 122°37'0 0.0
2018-Jul-21 06:31N 48°31' W 122°37'0 0.5
2018-Jul-21 06:00N 48°31' W 122°37'2 4.1
2018-Jul-21 05:31N 48°31' W 122°34'0 1.0
2018-Jul-21 05:01N 48°31' W 122°35'0 0.3
2018-Jul-21 04:31N 48°31' W 122°35'2 3.1
2018-Jul-21 04:01N 48°31' W 122°37'0 0.0
2018-Jul-21 03:29N 48°31' W 122°37'0 0.0
2018-Jul-21 03:01N 48°31' W 122°37'0 0.0
2018-Jul-21 02:30N 48°31' W 122°37'0 0.0
2018-Jul-21 02:01N 48°31' W 122°37'0 0.0
2018-Jul-21 01:30N 48°31' W 122°37'0 0.0
2018-Jul-21 01:01N 48°31' W 122°37'0 0.0
2018-Jul-21 00:30N 48°31' W 122°37'0 0.0
2018-Jul-21 00:01N 48°31' W 122°37'0 0.0
2018-Jul-20 23:30N 48°31' W 122°37'0 0.0
2018-Jul-20 23:01N 48°31' W 122°37'0 0.0
2018-Jul-20 22:30N 48°31' W 122°37'0 0.0
2018-Jul-20 22:00N 48°31' W 122°37'0 0.0
2018-Jul-20 21:30N 48°31' W 122°37'0 0.0
2018-Jul-20 21:01N 48°31' W 122°37'0 0.0
2018-Jul-20 20:30N 48°31' W 122°37'0 0.0
2018-Jul-20 20:00N 48°31' W 122°37'0 0.0
2018-Jul-20 19:30N 48°31' W 122°37'0 0.0
2018-Jul-20 19:00N 48°31' W 122°37'0 0.7
2018-Jul-20 18:31N 48°31' W 122°36'2 4.1
2018-Jul-20 17:59N 48°31' W 122°33'0 0.1
2018-Jul-20 17:23N 48°31' W 122°33'0 0.0
2018-Jul-20 16:59N 48°31' W 122°33'0 0.0
2018-Jul-20 16:29N 48°31' W 122°33'0 0.1
2018-Jul-20 15:59N 48°31' W 122°33'0 0.1
2018-Jul-20 15:29N 48°31' W 122°33'0 0.0
2018-Jul-20 14:59N 48°31' W 122°33'0 0.0
2018-Jul-20 14:23N 48°31' W 122°33'0 0.0
2018-Jul-20 13:59N 48°31' W 122°33'1 2.7
2018-Jul-20 13:30N 48°31' W 122°35'0 0.4
2018-Jul-20 13:00N 48°31' W 122°35'1 1.4
2018-Jul-20 12:30N 48°31' W 122°35'4 8.8
2018-Jul-20 12:01N 48°31' W 122°42'5 9.7
2018-Jul-20 11:30N 48°26' W 122°45'2 3.3
2018-Jul-20 11:00N 48°25' W 122°47'612.9
2018-Jul-20 10:30N 48°32' W 122°45'713.5
2018-Jul-20 09:59N 48°39' W 122°44'611.9
2018-Jul-20 09:31N 48°44' W 122°45'2 0.6
2018-Jul-20 06:26N 48°43' W 122°43'410.6
2018-Jul-20 06:01N 48°39' W 122°39'4 7.6
2018-Jul-20 05:30N 48°40' W 122°34'5 9.1
2018-Jul-20 04:59N 48°44' W 122°31'1 0.1
2018-Jul-19 19:01N 48°44' W 122°31'2 9.5
2018-Jul-19 18:49N 48°42' W 122°33'3 9.9
2018-Jul-19 18:30N 48°39' W 122°34'510.0
2018-Jul-19 18:00N 48°36' W 122°39'510.5
2018-Jul-19 17:30N 48°31' W 122°42'35 8.7
2018-Jul-19 13:29N 47°59' W 122°19'2 1.3
2018-Jul-19 11:54N 47°57' W 122°19'3 6.5
2018-Jul-19 11:30N 47°55' W 122°21'3 6.4
2018-Jul-19 11:00N 47°52' W 122°23'4 7.0
2018-Jul-19 10:30N 47°49' W 122°24'4 8.6
2018-Jul-19 10:00N 47°44' W 122°26'4 8.7
2018-Jul-19 09:30N 47°40' W 122°27'4 7.9
2018-Jul-19 09:00N 47°37' W 122°24'2 3.7
2018-Jul-19 08:30N 47°35' W 122°22'1 2.4
2018-Jul-19 08:00N 47°36' W 122°21'4 8.1
2018-Jul-19 07:30N 47°38' W 122°25'511.0
2018-Jul-19 07:00N 47°43' W 122°28'611.6
2018-Jul-19 06:30N 47°49' W 122°28'611.9
2018-Jul-19 06:00N 47°55' W 122°31'3411.1
2018-Jul-19 02:56N 48°28' W 122°43'4 9.0
2018-Jul-19 02:30N 48°31' W 122°41'4 7.4
2018-Jul-19 02:00N 48°31' W 122°35'0 0.9
2018-Jul-19 01:30N 48°31' W 122°35'0 0.8
2018-Jul-19 01:00N 48°31' W 122°34'0 0.3
2018-Jul-19 00:30N 48°31' W 122°34'0 0.2
2018-Jul-19 00:00N 48°31' W 122°34'0 0.3
2018-Jul-18 23:30N 48°31' W 122°34'1 2.8
2018-Jul-18 23:00N 48°31' W 122°36'1 1.9
2018-Jul-18 22:30N 48°31' W 122°38'3 6.2
2018-Jul-18 22:00N 48°31' W 122°42'3 6.6
2018-Jul-18 21:30N 48°28' W 122°44'27 8.9
2018-Jul-18 18:30N 48°01' W 122°37'611.5
2018-Jul-18 18:00N 47°57' W 122°32'510.3
2018-Jul-18 17:30N 47°52' W 122°28'510.1
2018-Jul-18 17:00N 47°47' W 122°26'5 9.8
2018-Jul-18 16:30N 47°42' W 122°27'5 9.2
2018-Jul-18 16:00N 47°38' W 122°25'2 3.4
2018-Jul-18 15:29N 47°38' W 122°23'0 0.0
2018-Jul-18 14:59N 47°38' W 122°23'0 0.0
2018-Jul-18 14:29N 47°38' W 122°23'0 0.0
2018-Jul-18 13:29N 47°38' W 122°23'0 0.0
2018-Jul-18 12:59N 47°38' W 122°23'0 0.0
2018-Jul-18 12:29N 47°38' W 122°23'0 0.0
2018-Jul-18 11:59N 47°38' W 122°23'1 1.5
2018-Jul-18 11:30N 47°37' W 122°22'2 2.4
2018-Jul-18 10:30N 47°35' W 122°21'3 6.1
2018-Jul-18 10:00N 47°38' W 122°23'0 0.0
2018-Jul-18 09:28N 47°38' W 122°23'0 0.0
2018-Jul-18 08:58N 47°38' W 122°23'0 0.0
2018-Jul-18 08:28N 47°38' W 122°23'0 0.0
2018-Jul-18 07:58N 47°38' W 122°23'0 0.0
2018-Jul-18 07:28N 47°38' W 122°23'0 0.0
2018-Jul-18 06:58N 47°38' W 122°23'0 0.0
2018-Jul-18 06:28N 47°38' W 122°23'0 0.0
2018-Jul-18 05:58N 47°38' W 122°23'0 0.0
2018-Jul-18 05:28N 47°38' W 122°23'0 0.0
2018-Jul-18 04:58N 47°38' W 122°23'0 0.0
2018-Jul-18 04:28N 47°38' W 122°23'0 0.0
2018-Jul-18 03:58N 47°38' W 122°23'0 0.0
2018-Jul-18 03:28N 47°38' W 122°23'0 0.0
2018-Jul-18 02:58N 47°38' W 122°23'0 0.0
2018-Jul-18 02:28N 47°38' W 122°23'1 1.9
2018-Jul-18 02:00N 47°37' W 122°22'2 4.6
2018-Jul-18 01:30N 47°35' W 122°21'0 0.4
2018-Jul-18 01:00N 47°35' W 122°21'0 0.3
2018-Jul-18 00:30N 47°35' W 122°21'0 0.0
2018-Jul-18 00:00N 47°35' W 122°21'0 0.0
2018-Jul-17 23:30N 47°35' W 122°21'0 0.0
2018-Jul-17 23:00N 47°35' W 122°21'0 0.0
2018-Jul-17 22:30N 47°35' W 122°21'1 1.7
2018-Jul-17 22:00N 47°36' W 122°21'0 0.7
2018-Jul-17 21:30N 47°35' W 122°21'2 4.1
2018-Jul-17 21:00N 47°37' W 122°23'1 1.5
2018-Jul-17 20:30N 47°38' W 122°23'0 0.0
2018-Jul-17 20:01N 47°38' W 122°23'4 8.0
2018-Jul-17 19:31N 47°34' W 122°26'510.1
2018-Jul-17 19:00N 47°29' W 122°24'510.0
2018-Jul-17 18:30N 47°25' W 122°22'4 8.3
2018-Jul-17 17:59N 47°21' W 122°24'3 6.2
2018-Jul-17 17:26N 47°18' W 122°26'2 2.5
2018-Jul-17 16:45N 47°16' W 122°27'0 0.0
2018-Jul-17 16:28N 47°16' W 122°27'0 1.0
2018-Jul-17 16:00N 47°16' W 122°27'0 0.9
2018-Jul-17 15:29N 47°16' W 122°26'0 0.9
2018-Jul-17 15:00N 47°16' W 122°26'0 0.0
2018-Jul-17 14:30N 47°16' W 122°26'0 0.0
2018-Jul-17 13:58N 47°16' W 122°26'0 0.0
2018-Jul-17 13:29N 47°16' W 122°26'0 0.0
2018-Jul-17 13:00N 47°16' W 122°26'0 0.0
2018-Jul-17 12:30N 47°16' W 122°26'4 8.6
2018-Jul-17 11:59N 47°20' W 122°27'5 9.8
2018-Jul-17 11:30N 47°24' W 122°22'510.4
2018-Jul-17 11:00N 47°29' W 122°24'510.7
2018-Jul-17 10:31N 47°34' W 122°25'4 7.7
2018-Jul-17 09:58N 47°38' W 122°23'0 0.0
2018-Jul-17 09:28N 47°38' W 122°23'0 0.0
2018-Jul-17 08:58N 47°38' W 122°23'0 0.0
2018-Jul-17 08:28N 47°38' W 122°23'0 0.0
2018-Jul-17 07:58N 47°38' W 122°23'0 0.0
2018-Jul-17 07:28N 47°38' W 122°23'0 0.0
2018-Jul-17 06:58N 47°38' W 122°23'0 0.0
2018-Jul-17 06:28N 47°38' W 122°23'0 0.0
2018-Jul-17 05:58N 47°38' W 122°23'0 0.0
2018-Jul-17 05:28N 47°38' W 122°23'0 0.0
2018-Jul-17 04:58N 47°38' W 122°23'0 0.0
2018-Jul-17 04:28N 47°38' W 122°23'0 0.1
2018-Jul-17 04:01N 47°38' W 122°23'1 2.9
2018-Jul-17 03:31N 47°37' W 122°21'1 2.9
2018-Jul-17 03:00N 47°35' W 122°21'1 2.9
2018-Jul-17 02:30N 47°36' W 122°23'2 3.1
2018-Jul-17 02:00N 47°38' W 122°23'0 0.0
2018-Jul-17 01:30N 47°38' W 122°23'0 0.0
2018-Jul-17 01:00N 47°38' W 122°23'0 0.0
2018-Jul-17 00:28N 47°38' W 122°23'0 0.0
2018-Jul-16 23:30N 47°38' W 122°23'0 0.0
2018-Jul-16 23:00N 47°38' W 122°23'0 0.0
2018-Jul-16 22:31N 47°38' W 122°23'0 0.0
2018-Jul-16 22:01N 47°38' W 122°23'0 0.0
2018-Jul-16 21:30N 47°38' W 122°23'0 0.0
2018-Jul-16 21:00N 47°38' W 122°23'0 0.0
2018-Jul-16 20:30N 47°38' W 122°23'0 0.0
2018-Jul-16 20:00N 47°38' W 122°23'0 0.0
2018-Jul-16 19:30N 47°38' W 122°23'0 0.0
2018-Jul-16 19:00N 47°38' W 122°23'0 0.0
2018-Jul-16 18:30N 47°38' W 122°23'0 0.0
2018-Jul-16 18:00N 47°38' W 122°23'0 0.0
2018-Jul-16 17:30N 47°38' W 122°23'0 0.0
2018-Jul-16 17:00N 47°38' W 122°23'0 0.0
2018-Jul-16 16:30N 47°38' W 122°23'0 0.0
2018-Jul-16 16:00N 47°38' W 122°23'0 0.0
2018-Jul-16 15:30N 47°38' W 122°23'0 0.0
2018-Jul-16 15:00N 47°38' W 122°23'1 2.9
2018-Jul-16 14:30N 47°37' W 122°22'2 4.6
2018-Jul-16 14:00N 47°34' W 122°21'1 2.3
2018-Jul-16 13:30N 47°33' W 122°21'0 0.7
2018-Jul-16 13:00N 47°33' W 122°20'1 2.9
2018-Jul-16 12:29N 47°34' W 122°21'3 6.6
2018-Jul-16 12:00N 47°37' W 122°23'1 1.1
2018-Jul-16 11:28N 47°38' W 122°23'0 0.0
2018-Jul-16 10:58N 47°38' W 122°23'0 0.0
2018-Jul-16 10:31N 47°38' W 122°23'0 0.0
2018-Jul-16 09:58N 47°38' W 122°23'0 0.0
2018-Jul-16 09:28N 47°38' W 122°23'0 0.0
2018-Jul-16 08:58N 47°38' W 122°23'0 0.0
2018-Jul-16 08:25N 47°38' W 122°23'0 0.0
2018-Jul-16 07:58N 47°38' W 122°23'0 0.0
2018-Jul-16 07:28N 47°38' W 122°23'0 0.0
2018-Jul-16 06:58N 47°38' W 122°23'0 0.0
2018-Jul-16 06:25N 47°38' W 122°23'0 0.0
2018-Jul-16 05:58N 47°38' W 122°23'0 0.0
2018-Jul-16 05:28N 47°38' W 122°23'0 0.0
2018-Jul-16 04:58N 47°38' W 122°23'0 0.0
2018-Jul-16 04:28N 47°38' W 122°23'0 0.0
2018-Jul-16 03:58N 47°38' W 122°23'0 1.0
2018-Jul-16 03:30N 47°37' W 122°23'2 4.7
2018-Jul-16 03:00N 47°36' W 122°21'0 0.2
2018-Jul-16 02:30N 47°36' W 122°21'3 5.2
2018-Jul-16 02:00N 47°38' W 122°23'0 0.0
2018-Jul-16 01:30N 47°38' W 122°23'0 0.0
2018-Jul-16 01:00N 47°38' W 122°23'0 0.0
2018-Jul-16 00:30N 47°38' W 122°23'0 0.0
2018-Jul-15 23:59N 47°38' W 122°23'0 0.0
2018-Jul-15 23:30N 47°38' W 122°23'0 0.0
2018-Jul-15 23:00N 47°38' W 122°23'0 0.0
2018-Jul-15 22:30N 47°38' W 122°23'0 0.0
2018-Jul-15 22:00N 47°38' W 122°23'0 0.0
2018-Jul-15 21:30N 47°38' W 122°23'0 0.0
2018-Jul-15 21:00N 47°38' W 122°23'0 0.0
2018-Jul-15 20:30N 47°38' W 122°23'0 0.0
2018-Jul-15 20:00N 47°38' W 122°23'0 0.0
2018-Jul-15 19:30N 47°38' W 122°23'0 0.0
2018-Jul-15 19:00N 47°38' W 122°23'0 0.0
2018-Jul-15 18:30N 47°38' W 122°23'0 0.0
2018-Jul-15 18:00N 47°38' W 122°23'0 0.0
2018-Jul-15 17:30N 47°38' W 122°23'0 0.0
2018-Jul-15 17:00N 47°38' W 122°23'0 0.0
2018-Jul-15 16:30N 47°38' W 122°23'0 0.0
2018-Jul-15 16:00N 47°38' W 122°23'0 0.0
2018-Jul-15 15:30N 47°38' W 122°23'0 0.0
2018-Jul-15 15:00N 47°38' W 122°23'0 0.0
2018-Jul-15 14:29N 47°38' W 122°23'0 0.0
2018-Jul-15 14:00N 47°38' W 122°23'0 0.0
2018-Jul-15 13:30N 47°38' W 122°23'3 6.4
2018-Jul-15 13:00N 47°35' W 122°21'0 0.0
2018-Jul-15 12:30N 47°35' W 122°21'1 1.9
2018-Jul-15 12:00N 47°36' W 122°21'1 2.6
2018-Jul-15 11:30N 47°37' W 122°22'1 1.8
2018-Jul-15 10:59N 47°38' W 122°23'0 0.0
2018-Jul-15 10:29N 47°38' W 122°23'0 0.0
2018-Jul-15 09:59N 47°38' W 122°23'0 0.0
2018-Jul-15 09:29N 47°38' W 122°23'0 0.0
2018-Jul-15 08:59N 47°38' W 122°23'0 0.0
2018-Jul-15 08:29N 47°38' W 122°23'0 0.0
2018-Jul-15 07:59N 47°38' W 122°23'0 0.0
2018-Jul-15 07:29N 47°38' W 122°23'0 0.0
2018-Jul-15 06:59N 47°38' W 122°23'0 0.0
2018-Jul-15 06:29N 47°38' W 122°23'0 0.0
2018-Jul-15 05:59N 47°38' W 122°23'0 0.0
2018-Jul-15 05:29N 47°38' W 122°23'0 0.0
2018-Jul-15 04:59N 47°38' W 122°23'0 0.0
2018-Jul-15 04:26N 47°38' W 122°23'0 0.0
2018-Jul-15 03:59N 47°38' W 122°23'0 0.0
2018-Jul-15 03:30N 47°38' W 122°23'1 1.0
2018-Jul-15 02:49N 47°37' W 122°22'1 1.9
2018-Jul-15 02:28N 47°38' W 122°23'0 0.0
2018-Jul-15 01:58N 47°38' W 122°23'0 0.0
2018-Jul-15 01:28N 47°38' W 122°23'0 0.0
2018-Jul-15 00:58N 47°38' W 122°23'0 0.0
2018-Jul-15 00:28N 47°38' W 122°23'0 0.0
2018-Jul-14 23:58N 47°38' W 122°23'0 0.0
2018-Jul-14 23:28N 47°38' W 122°23'0 0.0
2018-Jul-14 22:58N 47°38' W 122°23'0 0.0
2018-Jul-14 22:29N 47°38' W 122°23'0 0.0
2018-Jul-14 21:58N 47°38' W 122°23'0 0.0
2018-Jul-14 21:28N 47°38' W 122°23'0 0.0
2018-Jul-14 20:58N 47°38' W 122°23'0 0.0
2018-Jul-14 20:28N 47°38' W 122°23'0 0.0
2018-Jul-14 19:59N 47°38' W 122°23'0 0.0
2018-Jul-14 19:28N 47°38' W 122°23'0 0.0
2018-Jul-14 18:58N 47°38' W 122°23'0 0.0
2018-Jul-14 18:28N 47°38' W 122°23'0 0.0
2018-Jul-14 17:58N 47°38' W 122°23'0 0.0
2018-Jul-14 17:28N 47°38' W 122°23'3 7.3
2018-Jul-14 17:00N 47°35' W 122°25'611.5
2018-Jul-14 16:30N 47°30' W 122°29'611.4
2018-Jul-14 16:01N 47°25' W 122°32'5 9.8
2018-Jul-14 15:30N 47°20' W 122°31'510.0
2018-Jul-14 15:00N 47°17' W 122°25'2 4.3
2018-Jul-14 14:30N 47°15' W 122°23'2 2.4
2018-Jul-14 13:31N 47°17' W 122°25'1 2.4
2018-Jul-14 13:00N 47°16' W 122°24'1 2.4
2018-Jul-14 12:30N 47°15' W 122°23'0 0.1
2018-Jul-14 11:52N 47°15' W 122°23'1 0.4
2018-Jul-14 08:47N 47°16' W 122°24'0 1.7
2018-Jul-14 08:30N 47°16' W 122°24'0 0.3
2018-Jul-14 08:00N 47°16' W 122°24'0 0.3
2018-Jul-14 07:29N 47°16' W 122°24'1 2.4
2018-Jul-14 06:58N 47°16' W 122°26'0 0.1
2018-Jul-14 06:13N 47°16' W 122°26'0 0.0
2018-Jul-14 05:58N 47°16' W 122°26'0 0.0
2018-Jul-14 05:28N 47°16' W 122°26'0 0.0
2018-Jul-14 04:55N 47°16' W 122°26'0 0.0
2018-Jul-14 04:28N 47°16' W 122°26'0 0.0
2018-Jul-14 03:58N 47°16' W 122°26'0 0.0
2018-Jul-14 03:25N 47°16' W 122°26'0 0.1
2018-Jul-14 02:58N 47°16' W 122°26'0 0.0
2018-Jul-14 02:28N 47°16' W 122°26'0 0.1
2018-Jul-14 01:52N 47°16' W 122°26'0 0.0
2018-Jul-14 01:28N 47°16' W 122°26'0 0.1
2018-Jul-14 01:00N 47°16' W 122°26'1 1.0
2018-Jul-13 23:35N 47°17' W 122°25'111.0
2018-Jul-13 23:30N 47°17' W 122°26'1 1.8
2018-Jul-13 22:52N 47°16' W 122°24'0 1.0
2018-Jul-13 22:29N 47°17' W 122°25'1 2.6
2018-Jul-13 21:58N 47°17' W 122°26'0 0.8
2018-Jul-13 21:30N 47°18' W 122°26'2 3.8
2018-Jul-13 21:00N 47°16' W 122°26'0 0.5
2018-Jul-13 20:26N 47°16' W 122°26'2 1.9
2018-Jul-13 19:33N 47°18' W 122°26'0 0.1
2018-Jul-13 19:26N 47°18' W 122°26'0 0.0
2018-Jul-13 19:00N 47°18' W 122°26'0 0.0
2018-Jul-13 18:28N 47°18' W 122°26'0 0.3
2018-Jul-13 17:57N 47°18' W 122°26'1 1.9
2018-Jul-13 17:09N 47°16' W 122°25'1 3.9
2018-Jul-13 17:00N 47°17' W 122°25'0 0.3
2018-Jul-13 16:11N 47°17' W 122°26'1 0.3
2018-Jul-13 12:39N 47°16' W 122°26'0 0.0
2018-Jul-13 10:51N 47°16' W 122°26'0 0.0
2018-Jul-13 10:30N 47°16' W 122°26'0 0.0
2018-Jul-13 10:00N 47°16' W 122°26'0 0.0
2018-Jul-13 09:30N 47°16' W 122°26'0 0.0
2018-Jul-13 09:00N 47°16' W 122°26'1 2.8
2018-Jul-13 08:30N 47°16' W 122°24'1 2.4
2018-Jul-13 07:59N 47°15' W 122°23'2 3.6
2018-Jul-13 07:30N 47°17' W 122°25'2 3.5
2018-Jul-13 07:00N 47°18' W 122°27'1 2.1
2018-Jul-13 06:30N 47°17' W 122°25'1 2.5
2018-Jul-13 06:00N 47°16' W 122°26'0 0.0
2018-Jul-13 05:30N 47°16' W 122°26'0 0.0
2018-Jul-13 05:00N 47°16' W 122°26'0 0.0
2018-Jul-13 04:30N 47°16' W 122°26'0 0.0
2018-Jul-13 04:00N 47°16' W 122°26'0 0.0
2018-Jul-13 03:30N 47°16' W 122°26'0 0.0
2018-Jul-13 03:00N 47°16' W 122°26'0 0.0
2018-Jul-13 02:30N 47°16' W 122°26'0 0.0
2018-Jul-13 02:00N 47°16' W 122°26'4 8.5
2018-Jul-13 01:30N 47°20' W 122°27'5 9.6
2018-Jul-13 01:01N 47°23' W 122°22'510.5
2018-Jul-13 00:30N 47°28' W 122°24'510.5
2018-Jul-13 00:00N 47°33' W 122°25'5 9.3
2018-Jul-12 23:30N 47°38' W 122°23'0 0.4
2018-Jul-12 23:00N 47°38' W 122°23'0 0.0
2018-Jul-12 22:30N 47°38' W 122°23'0 0.0
2018-Jul-12 22:00N 47°38' W 122°23'0 0.0
2018-Jul-12 21:30N 47°38' W 122°23'0 0.0
2018-Jul-12 21:00N 47°38' W 122°23'0 0.0
2018-Jul-12 20:30N 47°38' W 122°23'0 0.0
2018-Jul-12 20:00N 47°38' W 122°23'3 6.0
2018-Jul-12 19:30N 47°35' W 122°21'0 0.1
2018-Jul-12 19:00N 47°35' W 122°21'1 1.2
2018-Jul-12 18:30N 47°36' W 122°21'1 2.2
2018-Jul-12 18:00N 47°37' W 122°22'0 0.1
2018-Jul-12 17:30N 47°37' W 122°22'0 0.5
2018-Jul-12 17:00N 47°37' W 122°22'2 3.2
2018-Jul-12 16:30N 47°36' W 122°21'0 0.2
2018-Jul-12 16:00N 47°36' W 122°21'1 2.1
2018-Jul-12 15:30N 47°36' W 122°22'1 2.8
2018-Jul-12 15:00N 47°37' W 122°23'1 1.4
2018-Jul-12 14:30N 47°38' W 122°23'0 0.0
2018-Jul-12 14:00N 47°38' W 122°23'0 0.0
2018-Jul-12 13:30N 47°38' W 122°23'0 0.7
2018-Jul-12 13:00N 47°38' W 122°23'2 4.9
2018-Jul-12 12:30N 47°36' W 122°21'0 0.6
2018-Jul-12 11:58N 47°36' W 122°20'0 0.0
2018-Jul-12 11:28N 47°36' W 122°20'2 3.3
2018-Jul-12 11:00N 47°36' W 122°23'4 8.1
2018-Jul-12 10:30N 47°32' W 122°25'5 9.8
2018-Jul-12 10:00N 47°28' W 122°24'510.2
2018-Jul-12 09:30N 47°23' W 122°21'5 9.6
2018-Jul-12 09:00N 47°20' W 122°26'3 6.7
2018-Jul-12 08:31N 47°16' W 122°24'0 0.2
2018-Jul-12 08:00N 47°16' W 122°24'0 0.4
2018-Jul-12 07:31N 47°17' W 122°24'4 7.7
2018-Jul-12 07:00N 47°20' W 122°28'510.4
2018-Jul-12 06:31N 47°23' W 122°22'510.4
2018-Jul-12 06:00N 47°29' W 122°24'510.5
2018-Jul-12 05:30N 47°34' W 122°25'5 9.3
2018-Jul-12 05:00N 47°38' W 122°23'0 0.1
2018-Jul-12 04:30N 47°38' W 122°23'1 1.3
2018-Jul-12 04:00N 47°37' W 122°23'2 4.4
2018-Jul-12 03:30N 47°35' W 122°21'1 1.0
2018-Jul-12 03:00N 47°35' W 122°22'0 0.0
2018-Jul-12 02:30N 47°35' W 122°22'2 4.7
2018-Jul-12 02:00N 47°35' W 122°25'5 9.4
2018-Jul-12 01:30N 47°34' W 122°32'3 5.5
2018-Jul-12 00:55N 47°33' W 122°36'1 2.2
2018-Jul-12 00:26N 47°33' W 122°38'0 0.1
2018-Jul-11 23:56N 47°33' W 122°38'0 1.0
2018-Jul-11 23:27N 47°33' W 122°38'0 0.0
2018-Jul-11 22:09N 47°33' W 122°38'0 0.0
2018-Jul-11 21:48N 47°33' W 122°38'0 0.0
2018-Jul-11 21:27N 47°33' W 122°38'0 0.3
2018-Jul-11 21:00N 47°33' W 122°37'4 7.7
2018-Jul-11 20:30N 47°34' W 122°32'5 9.3
2018-Jul-11 20:00N 47°30' W 122°29'5 9.6
2018-Jul-11 19:31N 47°25' W 122°31'5 9.8
2018-Jul-11 19:00N 47°20' W 122°32'5 9.8
2018-Jul-11 18:30N 47°17' W 122°27'1 2.4
2018-Jul-11 18:00N 47°17' W 122°25'2 3.1
2018-Jul-11 17:30N 47°16' W 122°27'0 0.9
2018-Jul-11 17:00N 47°16' W 122°26'1 0.7
2018-Jul-11 15:07N 47°17' W 122°25'1 4.6
2018-Jul-11 15:00N 47°17' W 122°25'2 1.2
2018-Jul-11 13:47N 47°16' W 122°23'1 3.4
2018-Jul-11 13:30N 47°16' W 122°24'2 4.0
2018-Jul-11 13:00N 47°18' W 122°26'0 0.7
2018-Jul-11 12:30N 47°18' W 122°26'0 0.0
2018-Jul-11 12:00N 47°18' W 122°26'2 4.6
2018-Jul-11 11:31N 47°20' W 122°27'  

Dump ship's entire track history